Time;durP1;ratioP1;P1;durP2;ratioP2;P2;SDS_P1;SDS_P2;PMS_P1;PMS_P2;Temp;Humidity;BMP_temperature;BMP_pressure;BME280_temperature;BME280_humidity;BME280_pressure;Samples;Min_cycle;Max_cycle;Signal;HPM_P1;HPM_P2
2022/11/13 00:02:11;;;;;;;0.22;0.22;;;8.20;99.90;;;;;;5048443;28;20051;-64
2022/11/13 00:04:36;;;;;;;0.57;0.57;;;8.20;99.90;;;;;;5058585;28;20049;-64
2022/11/13 00:07:02;;;;;;;1.92;1.25;;;8.20;99.90;;;;;;5051346;28;20168;-64
2022/11/13 00:09:27;;;;;;;0.30;0.30;;;8.20;99.90;;;;;;5034315;28;20041;-64
2022/11/13 00:11:53;;;;;;;0.32;0.32;;;8.10;99.90;;;;;;5052031;28;20056;-64
2022/11/13 00:14:18;;;;;;;0.47;0.47;;;8.10;99.90;;;;;;5052076;28;20045;-64
2022/11/13 00:16:44;;;;;;;1.27;1.27;;;8.20;99.90;;;;;;5033894;28;20044;-64
2022/11/13 00:19:10;;;;;;;4.03;1.70;;;8.20;99.90;;;;;;5052991;28;20036;-64
2022/11/13 00:21:35;;;;;;;1.23;1.13;;;8.20;99.90;;;;;;5049331;28;20102;-63
2022/11/13 00:24:01;;;;;;;1.27;1.00;;;8.20;99.90;;;;;;5051058;28;20040;-65
2022/11/13 00:26:28;;;;;;;0.20;0.20;;;8.20;99.90;;;;;;5048757;28;20057;-65
2022/11/13 00:28:56;;;;;;;0.57;0.57;;;8.20;99.90;;;;;;5051993;28;20392;-65
2022/11/13 00:31:22;;;;;;;5.28;1.98;;;8.20;99.90;;;;;;5054813;28;20784;-65
2022/11/13 00:33:47;;;;;;;0.63;0.63;;;8.20;99.90;;;;;;5056531;28;20071;-65
2022/11/13 00:36:18;;;;;;;1.40;1.30;;;8.20;99.90;;;;;;5055570;28;20408;-65
2022/11/13 00:38:44;;;;;;;2.60;1.23;;;8.20;99.90;;;;;;5056312;28;20127;-65
2022/11/13 00:41:10;;;;;;;1.27;1.20;;;8.20;99.90;;;;;;5061830;28;20548;-64
2022/11/13 00:43:36;;;;;;;0.40;0.40;;;8.30;99.90;;;;;;5051266;28;20075;-65
2022/11/13 00:46:02;;;;;;;0.40;0.40;;;8.40;99.90;;;;;;5058104;28;20040;-65
2022/11/13 00:48:28;;;;;;;0.20;0.20;;;8.40;99.90;;;;;;5069929;28;20041;-64
2022/11/13 00:50:53;;;;;;;0.52;0.52;;;8.30;99.90;;;;;;5060484;28;20037;-64
2022/11/13 00:53:19;;;;;;;3.20;1.45;;;8.30;99.90;;;;;;5066013;28;20040;-65
2022/11/13 00:55:45;;;;;;;0.30;0.30;;;8.30;99.90;;;;;;5069163;28;20049;-65
2022/11/13 00:58:12;;;;;;;1.13;0.70;;;8.40;99.90;;;;;;5048148;28;20076;-65
2022/11/13 01:00:39;;;;;;;0.10;0.10;;;8.40;99.90;;;;;;5056552;28;20040;-65
2022/11/13 01:03:05;;;;;;;2.03;1.92;;;8.30;99.90;;;;;;5067779;28;20044;-65
2022/11/13 01:05:33;;;;;;;0.73;0.73;;;8.30;99.90;;;;;;5067590;28;20083;-65
2022/11/13 01:07:59;;;;;;;1.58;0.68;;;8.30;99.90;;;;;;5068979;28;20044;-65
2022/11/13 01:10:25;;;;;;;0.47;0.47;;;8.40;99.90;;;;;;5055019;28;20700;-65
2022/11/13 01:12:50;;;;;;;0.63;0.63;;;8.30;99.90;;;;;;5054129;28;20052;-65
2022/11/13 01:15:16;;;;;;;0.28;0.28;;;8.30;99.90;;;;;;5066210;28;20553;-65
2022/11/13 01:17:42;;;;;;;2.40;1.48;;;8.30;99.90;;;;;;5051423;28;20041;-65
2022/11/13 01:20:08;;;;;;;0.45;0.45;;;8.30;99.90;;;;;;5056465;28;20041;-64
2022/11/13 01:22:33;;;;;;;0.82;0.82;;;8.30;99.90;;;;;;5057394;28;20680;-64
2022/11/13 01:24:59;;;;;;;0.50;0.50;;;8.20;99.90;;;;;;5062495;28;20041;-65
2022/11/13 01:27:25;;;;;;;0.45;0.45;;;8.20;99.90;;;;;;5055983;28;20068;-65
2022/11/13 01:29:50;;;;;;;0.38;0.38;;;8.30;99.90;;;;;;5051639;28;20037;-65
2022/11/13 01:32:16;;;;;;;0.70;0.70;;;8.20;99.90;;;;;;5053364;28;20433;-65
2022/11/13 01:34:41;;;;;;;0.40;0.40;;;8.20;99.90;;;;;;5057377;28;20041;-65
2022/11/13 01:37:07;;;;;;;0.63;0.63;;;8.20;99.90;;;;;;5064613;28;20048;-65
2022/11/13 01:39:32;;;;;;;0.40;0.40;;;8.10;99.90;;;;;;5060286;28;20044;-64
2022/11/13 01:41:59;;;;;;;0.10;0.10;;;8.10;99.90;;;;;;5042279;28;20097;-65
2022/11/13 01:44:24;;;;;;;0.22;0.22;;;8.10;99.90;;;;;;5044827;28;20400;-64
2022/11/13 01:46:54;;;;;;;0.10;0.10;;;8.10;99.90;;;;;;5046232;28;20049;-64
2022/11/13 01:49:39;;;;;;;3.53;1.65;;;8.10;99.90;;;;;;5060638;28;20045;-65
2022/11/13 01:52:19;;;;;;;0.95;0.93;;;8.10;99.90;;;;;;5060748;28;20071;-64
2022/11/13 01:54:49;;;;;;;0.10;0.10;;;8.10;99.90;;;;;;5050731;28;20049;-65
2022/11/13 01:57:16;;;;;;;0.30;0.30;;;8.00;99.90;;;;;;5063342;28;20558;-65
2022/11/13 01:59:53;;;;;;;3.05;1.95;;;8.00;99.90;;;;;;5050901;28;20094;-65
2022/11/13 02:02:19;;;;;;;0.90;0.65;;;8.00;99.90;;;;;;5060348;28;20476;-65
2022/11/13 02:04:45;;;;;;;0.28;0.28;;;8.00;99.90;;;;;;5063046;28;20079;-65
2022/11/13 02:07:13;;;;;;;0.20;0.20;;;8.00;99.90;;;;;;5069524;28;20050;-65
2022/11/13 02:09:42;;;;;;;13.00;2.33;;;8.00;99.90;;;;;;5062529;28;20686;-64
2022/11/13 02:12:11;;;;;;;0.45;0.45;;;8.00;99.90;;;;;;5064086;28;20471;-65
2022/11/13 02:14:40;;;;;;;0.20;0.20;;;7.90;99.90;;;;;;5066216;28;20064;-65
2022/11/13 02:17:10;;;;;;;0.55;0.52;;;7.90;99.90;;;;;;5050746;28;20041;-65
2022/11/13 02:19:39;;;;;;;0.40;0.40;;;7.90;99.90;;;;;;5051918;28;20064;-64
2022/11/13 02:22:23;;;;;;;1.23;1.15;;;8.00;99.90;;;;;;5064416;28;20059;-65
2022/11/13 02:24:49;;;;;;;0.43;0.43;;;8.00;99.90;;;;;;5068613;28;20083;-64
2022/11/13 02:27:38;;;;;;;0.35;0.35;;;7.90;99.90;;;;;;5067793;28;20086;-65
2022/11/13 02:30:20;;;;;;;1.75;1.38;;;7.90;99.90;;;;;;5052937;28;20090;-65
2022/11/13 02:32:48;;;;;;;0.40;0.40;;;7.90;99.90;;;;;;5057973;28;20065;-65
2022/11/13 02:35:20;;;;;;;0.60;0.60;;;7.90;99.90;;;;;;5033244;28;20056;-65
2022/11/13 02:37:46;;;;;;;0.52;0.52;;;7.90;99.90;;;;;;5049161;28;20400;-65
2022/11/13 02:40:12;;;;;;;0.50;0.50;;;7.90;99.90;;;;;;5055951;28;20510;-65
2022/11/13 02:42:37;;;;;;;1.52;1.13;;;7.90;99.90;;;;;;5055140;28;20136;-65
2022/11/13 02:45:05;;;;;;;0.43;0.43;;;7.90;99.90;;;;;;5048565;28;20116;-65
2022/11/13 02:47:30;;;;;;;0.63;0.63;;;7.90;99.90;;;;;;5042742;28;20037;-64
2022/11/13 02:49:56;;;;;;;2.92;2.03;;;7.90;99.90;;;;;;5051591;28;20389;-65
2022/11/13 02:52:22;;;;;;;0.85;0.85;;;7.90;99.90;;;;;;5066536;28;20404;-65
2022/11/13 02:54:47;;;;;;;0.50;0.50;;;7.90;99.90;;;;;;5065868;28;20040;-65
2022/11/13 02:57:13;;;;;;;0.90;0.90;;;7.90;99.90;;;;;;5056537;28;20060;-65
2022/11/13 02:59:39;;;;;;;0.28;0.28;;;7.90;99.90;;;;;;5065431;28;20052;-65
2022/11/13 03:02:04;;;;;;;0.17;0.17;;;7.90;99.90;;;;;;5034136;28;20044;-65
2022/11/13 03:04:30;;;;;;;0.98;0.68;;;7.90;99.90;;;;;;5050855;28;20037;-65
2022/11/13 03:06:55;;;;;;;1.13;1.13;;;7.90;99.90;;;;;;5037294;28;20512;-65
2022/11/13 03:09:21;;;;;;;0.57;0.57;;;7.90;99.90;;;;;;5062137;28;20475;-64
2022/11/13 03:11:46;;;;;;;0.22;0.22;;;7.80;99.90;;;;;;5048984;28;20045;-65
2022/11/13 03:14:12;;;;;;;1.42;1.35;;;7.90;99.90;;;;;;5045042;28;20049;-65
2022/11/13 03:16:37;;;;;;;0.47;0.47;;;7.90;99.90;;;;;;5071786;28;20075;-65
2022/11/13 03:19:03;;;;;;;0.75;0.75;;;7.90;99.90;;;;;;5072248;28;20045;-64
2022/11/13 03:21:29;;;;;;;0.10;0.10;;;7.90;99.90;;;;;;5063348;28;20044;-65
2022/11/13 03:23:55;;;;;;;0.52;0.52;;;7.90;99.90;;;;;;5054067;28;20486;-65
2022/11/13 03:26:21;;;;;;;0.10;0.10;;;7.90;99.90;;;;;;5061989;28;20075;-65
2022/11/13 03:28:47;;;;;;;0.20;0.20;;;7.90;99.90;;;;;;5055477;28;20045;-65
2022/11/13 03:31:12;;;;;;;0.43;0.43;;;7.90;99.90;;;;;;5043204;28;20055;-65
2022/11/13 03:33:38;;;;;;;1.00;0.75;;;7.90;99.90;;;;;;5049799;28;20049;-64
2022/11/13 03:36:04;;;;;;;0.28;0.28;;;7.90;99.90;;;;;;5060976;28;20511;-65
2022/11/13 03:38:30;;;;;;;0.10;0.10;;;7.90;99.90;;;;;;5059462;28;20045;-65
2022/11/13 03:40:56;;;;;;;2.10;0.95;;;7.90;99.90;;;;;;5051322;28;20511;-65
2022/11/13 03:43:22;;;;;;;0.80;0.80;;;7.90;99.90;;;;;;5071090;28;20052;-65
2022/11/13 03:45:47;;;;;;;0.40;0.40;;;7.80;99.90;;;;;;5055402;28;20163;-65
2022/11/13 03:48:14;;;;;;;1.00;0.65;;;7.90;99.90;;;;;;5070995;28;20032;-65
2022/11/13 03:50:45;;;;;;;1.58;1.48;;;7.90;99.90;;;;;;5052473;28;20052;-65
2022/11/13 03:53:11;;;;;;;0.20;0.20;;;7.90;99.90;;;;;;5054204;28;20064;-65
2022/11/13 03:55:37;;;;;;;0.65;0.65;;;7.90;99.90;;;;;;5062595;28;21269;-64
2022/11/13 03:58:03;;;;;;;3.38;1.05;;;7.90;99.90;;;;;;5052858;28;20049;-65
2022/11/13 04:00:29;;;;;;;0.82;0.82;;;7.90;99.90;;;;;;5066873;28;20055;-65
2022/11/13 04:02:55;;;;;;;1.40;1.30;;;8.00;99.90;;;;;;5052973;28;20616;-65
2022/11/13 04:05:21;;;;;;;0.20;0.20;;;8.00;99.90;;;;;;5052360;28;20055;-64
2022/11/13 04:07:47;;;;;;;1.17;0.63;;;8.00;99.90;;;;;;5067621;28;20036;-65
2022/11/13 04:10:13;;;;;;;0.60;0.60;;;8.00;99.90;;;;;;5059419;28;20128;-65
2022/11/13 04:12:38;;;;;;;1.10;0.45;;;8.00;99.90;;;;;;5065865;28;20123;-65
2022/11/13 04:15:05;;;;;;;0.50;0.50;;;8.10;99.90;;;;;;5060611;28;20032;-65
2022/11/13 04:17:30;;;;;;;3.13;1.27;;;8.00;99.90;;;;;;5058112;28;20041;-65
2022/11/13 04:19:56;;;;;;;0.63;0.55;;;8.00;99.90;;;;;;5050935;28;20041;-65
2022/11/13 04:22:21;;;;;;;0.45;0.45;;;8.00;99.90;;;;;;5060196;28;20041;-65
2022/11/13 04:24:47;;;;;;;0.10;0.10;;;8.00;99.90;;;;;;5070605;28;20033;-65
2022/11/13 04:27:13;;;;;;;0.25;0.25;;;8.00;99.90;;;;;;5056549;28;20044;-65
2022/11/13 04:29:38;;;;;;;2.35;2.17;;;8.00;99.90;;;;;;5061560;28;20503;-65
2022/11/13 04:32:04;;;;;;;1.48;1.08;;;8.00;99.90;;;;;;5068728;28;20060;-65
2022/11/13 04:34:29;;;;;;;0.30;0.30;;;8.00;99.90;;;;;;5061328;28;20114;-65
2022/11/13 04:36:55;;;;;;;0.20;0.20;;;8.00;99.90;;;;;;5062653;28;20040;-64
2022/11/13 04:39:21;;;;;;;1.20;1.10;;;7.90;99.90;;;;;;5043292;28;20086;-65
2022/11/13 04:44:30;;;;;;;0.40;0.40;;;7.90;99.90;;;;;;5061062;28;20049;-65
2022/11/13 04:46:56;;;;;;;1.73;1.63;;;7.90;99.90;;;;;;5050184;28;20047;-65
2022/11/13 04:49:21;;;;;;;1.70;1.33;;;7.90;99.90;;;;;;5051460;28;20045;-64
2022/11/13 04:51:47;;;;;;;0.47;0.47;;;7.90;99.90;;;;;;5065640;28;20143;-65
2022/11/13 04:54:13;;;;;;;0.95;0.95;;;7.90;99.90;;;;;;5051405;28;20099;-64
2022/11/13 04:56:38;;;;;;;0.75;0.75;;;7.80;99.90;;;;;;5067883;28;20649;-64
2022/11/13 04:59:04;;;;;;;0.30;0.30;;;7.90;99.90;;;;;;5069639;28;20130;-65
2022/11/13 05:01:30;;;;;;;1.70;0.63;;;7.90;99.90;;;;;;5055372;28;20080;-64
2022/11/13 05:03:55;;;;;;;0.32;0.32;;;7.80;99.90;;;;;;5056638;28;20152;-64
2022/11/13 05:06:21;;;;;;;0.40;0.40;;;7.90;99.90;;;;;;5058501;28;20052;-64
2022/11/13 05:08:46;;;;;;;1.27;1.00;;;7.90;99.90;;;;;;5066605;28;20068;-65
2022/11/13 05:11:12;;;;;;;0.45;0.45;;;7.80;99.90;;;;;;5061851;28;20048;-64
2022/11/13 05:13:38;;;;;;;1.33;1.25;;;7.90;99.90;;;;;;5067564;28;20089;-64
2022/11/13 05:16:06;;;;;;;0.40;0.40;;;7.90;99.90;;;;;;5065593;28;20047;-64
2022/11/13 05:18:33;;;;;;;0.90;0.90;;;7.80;99.90;;;;;;5067955;28;20044;-65
2022/11/13 05:20:59;;;;;;;1.13;1.10;;;7.80;99.90;;;;;;5059047;28;20040;-65
2022/11/13 05:23:25;;;;;;;0.20;0.20;;;7.80;99.90;;;;;;5055860;28;20156;-65
2022/11/13 05:25:50;;;;;;;0.47;0.40;;;7.80;99.90;;;;;;5042793;28;20544;-65
2022/11/13 05:28:16;;;;;;;2.67;1.40;;;7.80;99.90;;;;;;5042761;28;20346;-65
2022/11/13 05:30:43;;;;;;;0.52;0.52;;;7.80;99.90;;;;;;5068009;28;20067;-65
2022/11/13 05:33:08;;;;;;;4.93;3.42;;;7.80;99.90;;;;;;5060304;28;20049;-65
2022/11/13 05:35:34;;;;;;;0.20;0.20;;;7.80;99.90;;;;;;5060793;28;20148;-64
2022/11/13 05:38:01;;;;;;;0.60;0.60;;;7.90;99.90;;;;;;5052886;28;20048;-65
2022/11/13 05:40:27;;;;;;;1.75;1.05;;;7.90;99.90;;;;;;5063046;28;20052;-64
2022/11/13 05:42:54;;;;;;;1.35;1.27;;;7.80;99.90;;;;;;5069128;28;20048;-64
2022/11/13 05:45:19;;;;;;;3.10;1.13;;;7.90;99.90;;;;;;5035454;28;20053;-64
2022/11/13 05:47:45;;;;;;;0.30;0.30;;;7.90;99.90;;;;;;5051966;28;20515;-65
2022/11/13 05:50:10;;;;;;;1.17;1.13;;;7.80;99.90;;;;;;5051030;28;20362;-64
2022/11/13 05:52:36;;;;;;;3.28;1.40;;;7.80;99.90;;;;;;5060559;28;20040;-64
2022/11/13 05:55:02;;;;;;;1.00;1.00;;;7.80;99.90;;;;;;5039622;28;20044;-64
2022/11/13 05:57:27;;;;;;;0.20;0.20;;;7.90;99.90;;;;;;5050260;28;20047;-64
2022/11/13 05:59:53;;;;;;;0.40;0.40;;;7.90;99.90;;;;;;5047696;28;20072;-64
2022/11/13 06:02:18;;;;;;;0.20;0.20;;;7.80;99.90;;;;;;5064293;28;20044;-64
2022/11/13 06:04:44;;;;;;;0.50;0.50;;;7.80;99.90;;;;;;5067397;28;20036;-64
2022/11/13 06:07:09;;;;;;;0.13;0.13;;;7.80;99.90;;;;;;5056238;28;20045;-65
2022/11/13 06:09:36;;;;;;;1.17;0.73;;;7.80;99.90;;;;;;5061083;28;20041;-64
2022/11/13 06:12:01;;;;;;;1.17;0.75;;;7.80;99.90;;;;;;5053563;28;20100;-64
2022/11/13 06:14:27;;;;;;;1.40;1.30;;;7.80;99.90;;;;;;5048501;28;20115;-64
2022/11/13 06:16:52;;;;;;;1.63;1.05;;;7.80;99.90;;;;;;5052840;28;20495;-64
2022/11/13 06:19:18;;;;;;;0.30;0.30;;;7.70;99.90;;;;;;5060198;28;20047;-64
2022/11/13 06:21:43;;;;;;;0.22;0.22;;;7.80;99.90;;;;;;5061439;28;20076;-65
2022/11/13 06:24:11;;;;;;;1.77;0.85;;;7.80;99.90;;;;;;5057546;28;20037;-64
2022/11/13 06:26:37;;;;;;;1.40;0.77;;;7.80;99.90;;;;;;5050778;28;20037;-64
2022/11/13 06:29:05;;;;;;;0.77;0.77;;;7.80;99.90;;;;;;5048239;28;20392;-64
2022/11/13 06:31:33;;;;;;;0.20;0.20;;;7.80;99.90;;;;;;5056896;28;20140;-65
2022/11/13 06:33:59;;;;;;;0.20;0.20;;;7.80;99.90;;;;;;5043392;28;20045;-65
2022/11/13 06:36:30;;;;;;;0.32;0.32;;;7.80;99.90;;;;;;5055005;28;20623;-64
2022/11/13 06:38:56;;;;;;;0.10;0.10;;;7.80;99.90;;;;;;5056117;28;20032;-64
2022/11/13 06:41:24;;;;;;;0.30;0.30;;;7.80;99.90;;;;;;5051872;28;20050;-65
2022/11/13 06:43:50;;;;;;;0.57;0.57;;;7.80;99.90;;;;;;5060975;28;20075;-64
2022/11/13 06:46:18;;;;;;;0.40;0.40;;;7.80;99.90;;;;;;5060674;28;20081;-64
2022/11/13 06:48:44;;;;;;;0.40;0.40;;;7.70;99.90;;;;;;5056415;28;20098;-64
2022/11/13 06:51:19;;;;;;;0.10;0.10;;;7.80;99.90;;;;;;5060913;28;20068;-65
2022/11/13 06:53:45;;;;;;;0.82;0.75;;;7.70;99.90;;;;;;5064257;28;20548;-64
2022/11/13 06:56:11;;;;;;;0.15;0.15;;;7.70;99.90;;;;;;5063714;28;20032;-64
2022/11/13 06:58:37;;;;;;;0.60;0.60;;;7.70;99.90;;;;;;5055038;28;20094;-64
2022/11/13 07:01:07;;;;;;;0.10;0.10;;;7.70;99.90;;;;;;5059267;28;20041;-64
2022/11/13 07:03:32;;;;;;;0.60;0.60;;;7.80;99.90;;;;;;5064889;28;20051;-64
2022/11/13 07:06:04;;;;;;;0.38;0.38;;;7.80;99.90;;;;;;5060408;28;20037;-64
2022/11/13 07:08:30;;;;;;;2.85;0.85;;;7.80;99.90;;;;;;5063218;28;20127;-64
2022/11/13 07:10:56;;;;;;;0.70;0.70;;;7.80;99.90;;;;;;5049119;28;20128;-64
2022/11/13 07:13:23;;;;;;;0.43;0.43;;;7.80;99.90;;;;;;5061528;28;20456;-64
2022/11/13 07:15:48;;;;;;;0.35;0.35;;;7.80;99.90;;;;;;5055589;28;20488;-64
2022/11/13 07:18:14;;;;;;;0.75;0.75;;;7.80;99.90;;;;;;5061590;28;20101;-64
2022/11/13 07:20:39;;;;;;;0.50;0.50;;;7.80;99.90;;;;;;5049067;28;20052;-64
2022/11/13 07:23:05;;;;;;;0.20;0.20;;;7.90;99.90;;;;;;5061626;28;20504;-65
2022/11/13 07:25:31;;;;;;;0.20;0.20;;;7.90;99.90;;;;;;5054753;28;20520;-64
2022/11/13 07:27:57;;;;;;;0.10;0.10;;;7.90;99.90;;;;;;5050580;28;20041;-65
2022/11/13 07:30:22;;;;;;;0.30;0.30;;;7.90;99.90;;;;;;5053439;28;20145;-65
2022/11/13 07:32:48;;;;;;;0.50;0.50;;;8.00;99.90;;;;;;5038929;28;20135;-65
2022/11/13 07:35:15;;;;;;;0.10;0.10;;;8.00;99.90;;;;;;5063729;28;20056;-65
2022/11/13 07:37:41;;;;;;;0.43;0.43;;;8.00;99.90;;;;;;5053481;28;20040;-64
2022/11/13 07:40:07;;;;;;;2.92;2.22;;;8.00;99.90;;;;;;5061478;28;20044;-64
2022/11/13 07:42:33;;;;;;;2.10;0.68;;;8.10;99.90;;;;;;5056694;28;20407;-64
2022/11/13 07:44:58;;;;;;;0.82;0.82;;;8.10;99.90;;;;;;5064401;28;20029;-64
2022/11/13 07:47:24;;;;;;;0.28;0.28;;;8.10;99.90;;;;;;5059081;28;20041;-64
2022/11/13 07:49:50;;;;;;;0.32;0.32;;;8.10;99.90;;;;;;5065497;28;20040;-64
2022/11/13 07:52:15;;;;;;;0.25;0.25;;;8.20;99.90;;;;;;5056211;28;20041;-64
2022/11/13 07:54:41;;;;;;;2.03;1.63;;;8.20;99.90;;;;;;5063610;28;20052;-64
2022/11/13 07:57:07;;;;;;;0.63;0.63;;;8.30;99.90;;;;;;5054731;28;20040;-64
2022/11/13 07:59:32;;;;;;;0.20;0.20;;;8.30;99.90;;;;;;5050026;28;20047;-63
2022/11/13 08:01:58;;;;;;;2.17;0.95;;;8.40;99.90;;;;;;5059088;28;20049;-64
2022/11/13 08:04:24;;;;;;;1.40;1.33;;;8.40;99.90;;;;;;5065643;28;20408;-64
2022/11/13 08:06:50;;;;;;;0.20;0.20;;;8.50;99.90;;;;;;5069058;28;20058;-64
2022/11/13 08:09:15;;;;;;;1.42;0.88;;;8.50;99.90;;;;;;5070370;28;20172;-64
2022/11/13 08:11:41;;;;;;;0.40;0.40;;;8.50;99.90;;;;;;5038018;28;20037;-64
2022/11/13 08:14:06;;;;;;;0.10;0.10;;;8.60;99.90;;;;;;5068066;28;20128;-64
2022/11/13 08:16:32;;;;;;;0.47;0.47;;;8.60;99.90;;;;;;5051150;28;20090;-64
2022/11/13 08:18:57;;;;;;;0.10;0.10;;;8.70;99.90;;;;;;5051174;28;20049;-65
2022/11/13 08:21:23;;;;;;;0.20;0.20;;;8.70;99.90;;;;;;5049995;28;20055;-64
2022/11/13 08:23:49;;;;;;;0.10;0.10;;;8.70;99.90;;;;;;5050698;28;20040;-64
2022/11/13 08:26:16;;;;;;;0.10;0.10;;;8.80;99.90;;;;;;5033244;28;20057;-64
2022/11/13 08:28:41;;;;;;;0.10;0.10;;;8.80;99.90;;;;;;5066804;28;20064;-64
2022/11/13 08:31:11;;;;;;;2.33;1.08;;;9.00;99.90;;;;;;5070391;28;20129;-64
2022/11/13 08:33:36;;;;;;;0.20;0.20;;;9.00;99.90;;;;;;5059135;28;20060;-64
2022/11/13 08:36:02;;;;;;;0.75;0.55;;;9.00;99.90;;;;;;5036541;28;20033;-64
2022/11/13 08:38:28;;;;;;;0.22;0.22;;;9.10;99.90;;;;;;5053727;28;21965;-64
2022/11/13 08:40:58;;;;;;;1.50;0.98;;;9.20;99.90;;;;;;5053680;28;20048;-64
2022/11/13 08:43:24;;;;;;;0.10;0.10;;;9.20;99.90;;;;;;5060850;28;20098;-64
2022/11/13 08:45:49;;;;;;;0.10;0.10;;;9.20;99.90;;;;;;5045904;28;20041;-64
2022/11/13 08:48:15;;;;;;;0.15;0.15;;;9.20;99.90;;;;;;5050618;28;20076;-64
2022/11/13 08:50:40;;;;;;;0.10;0.10;;;9.30;99.90;;;;;;5054740;28;20040;-64
2022/11/13 08:53:07;;;;;;;0.43;0.43;;;9.30;99.90;;;;;;5050334;28;20641;-64
2022/11/13 08:55:33;;;;;;;0.80;0.80;;;9.30;99.90;;;;;;5052927;28;20045;-65
2022/11/13 08:58:01;;;;;;;1.17;1.05;;;9.30;99.90;;;;;;5050223;28;20401;-64
2022/11/13 09:00:28;;;;;;;0.20;0.20;;;9.30;99.90;;;;;;5052594;28;20045;-64
2022/11/13 09:02:58;;;;;;;0.10;0.10;;;9.30;99.90;;;;;;5059819;28;20076;-65
2022/11/13 09:05:24;;;;;;;0.50;0.47;;;9.30;99.90;;;;;;5054774;28;20052;-64
2022/11/13 09:07:50;;;;;;;8.57;1.02;;;9.40;99.90;;;;;;5060380;28;20036;-64
2022/11/13 09:10:17;;;;;;;1.30;1.30;;;9.40;99.90;;;;;;5059758;28;20055;-64
2022/11/13 09:12:43;;;;;;;0.10;0.10;;;9.40;99.90;;;;;;5055832;28;20048;-64
2022/11/13 09:15:09;;;;;;;0.60;0.60;;;9.50;99.90;;;;;;5051221;28;20033;-64
2022/11/13 09:17:35;;;;;;;0.45;0.45;;;9.50;99.90;;;;;;5051680;28;20044;-64
2022/11/13 09:20:00;;;;;;;0.20;0.20;;;9.60;99.90;;;;;;5056203;28;20395;-64
2022/11/13 09:22:26;;;;;;;0.63;0.63;;;9.70;99.90;;;;;;5050712;28;20067;-64
2022/11/13 09:24:52;;;;;;;1.05;0.98;;;9.70;99.90;;;;;;5032223;28;20442;-64
2022/11/13 09:27:17;;;;;;;1.27;0.95;;;9.80;99.90;;;;;;5049205;28;20053;-64
2022/11/13 09:29:43;;;;;;;0.10;0.10;;;9.80;99.90;;;;;;5059417;28;20060;-64
2022/11/13 09:32:09;;;;;;;0.63;0.40;;;9.90;99.90;;;;;;5066840;28;20678;-64
2022/11/13 09:34:34;;;;;;;0.13;0.13;;;10.00;99.90;;;;;;5065169;28;20044;-64
2022/11/13 09:37:00;;;;;;;0.20;0.20;;;10.00;99.90;;;;;;5069994;28;20048;-63
2022/11/13 09:39:26;;;;;;;0.10;0.10;;;10.10;99.90;;;;;;5070050;28;20522;-64
2022/11/13 09:42:12;;;;;;;0.45;0.40;;;10.20;99.90;;;;;;5055902;28;20115;-64
2022/11/13 09:44:49;;;;;;;0.10;0.10;;;10.20;99.90;;;;;;5063457;28;20044;-64
2022/11/13 09:47:23;;;;;;;0.10;0.10;;;10.30;99.90;;;;;;5052623;28;20385;-64
2022/11/13 09:50:10;;;;;;;0.10;0.10;;;10.30;99.90;;;;;;5061039;28;20044;-64
2022/11/13 09:52:41;;;;;;;0.10;0.10;;;10.40;99.90;;;;;;5058945;28;20523;-64
2022/11/13 09:55:12;;;;;;;0.50;0.50;;;10.50;99.90;;;;;;5049818;28;20052;-64
2022/11/13 09:58:31;;;;;;;0.10;0.10;;;10.60;99.90;;;;;;5049792;28;20056;-63
2022/11/13 10:00:59;;;;;;;0.95;0.28;;;10.70;99.90;;;;;;5025021;28;20048;-64
2022/11/13 10:03:30;;;;;;;0.13;0.13;;;10.80;99.90;;;;;;5051303;28;20059;-64
2022/11/13 10:06:09;;;;;;;0.10;0.10;;;10.90;99.90;;;;;;5068148;28;20123;-64
2022/11/13 10:08:54;;;;;;;0.50;0.50;;;10.90;99.90;;;;;;5048532;28;20061;-64
2022/11/13 10:11:47;;;;;;;0.32;0.32;;;11.00;99.90;;;;;;5031598;28;20051;-64
2022/11/13 10:14:20;;;;;;;0.10;0.10;;;11.10;99.90;;;;;;5051697;28;20063;-64
2022/11/13 10:16:55;;;;;;;0.75;0.75;;;11.20;99.90;;;;;;5033670;28;20079;-64
2022/11/13 10:19:49;;;;;;;0.43;0.43;;;11.30;99.90;;;;;;5061801;28;20049;-64
2022/11/13 10:22:24;;;;;;;0.55;0.55;;;11.30;99.90;;;;;;5050641;28;20151;-64
2022/11/13 10:24:51;;;;;;;0.65;0.65;;;11.40;99.90;;;;;;5060317;28;20041;-64
2022/11/13 10:27:17;;;;;;;0.25;0.25;;;11.50;99.90;;;;;;5068699;28;20060;-64
2022/11/13 10:29:43;;;;;;;0.35;0.35;;;11.60;99.90;;;;;;5056907;28;20396;-64
2022/11/13 10:32:19;;;;;;;0.20;0.20;;;11.60;99.90;;;;;;5050509;28;20120;-64
2022/11/13 10:34:58;;;;;;;0.13;0.13;;;11.70;99.90;;;;;;5058068;28;20107;-64
2022/11/13 10:37:38;;;;;;;0.40;0.40;;;11.80;99.90;;;;;;5067024;28;20076;-63
2022/11/13 10:40:04;;;;;;;0.68;0.68;;;11.80;99.90;;;;;;5067763;28;20040;-64
2022/11/13 10:42:37;;;;;;;0.20;0.20;;;11.90;99.90;;;;;;5064511;28;20492;-64
2022/11/13 10:45:03;;;;;;;;;;;11.90;99.90;;;;;;5057993;28;20076;-64
2022/11/13 10:47:31;;;;;;;0.10;0.10;;;11.90;99.90;;;;;;5071762;28;20311;-63
2022/11/13 10:50:08;;;;;;;0.13;0.13;;;11.90;99.90;;;;;;5063409;28;20044;-65
2022/11/13 10:52:42;;;;;;;0.32;0.32;;;11.90;99.90;;;;;;5062876;28;20045;-64
2022/11/13 10:55:39;;;;;;;1.20;1.05;;;12.00;99.90;;;;;;5064027;28;20075;-64
2022/11/13 10:58:16;;;;;;;0.30;0.30;;;12.10;99.90;;;;;;5061833;28;20047;-65
2022/11/13 11:00:46;;;;;;;0.20;0.20;;;12.10;99.90;;;;;;5066082;28;20053;-65
2022/11/13 11:03:23;;;;;;;1.67;1.17;;;12.20;99.90;;;;;;5065292;28;20492;-64
2022/11/13 11:05:54;;;;;;;0.38;0.38;;;12.30;99.90;;;;;;5068387;28;20072;-64
2022/11/13 11:08:25;;;;;;;0.13;0.13;;;12.40;99.90;;;;;;5071064;28;20055;-65
2022/11/13 11:14:21;;;;;;;0.10;0.10;;;12.70;99.90;;;;;;5055612;28;20044;-64
2022/11/13 11:16:50;;;;;;;0.50;0.50;;;12.80;99.90;;;;;;5066978;28;20076;-64
2022/11/13 11:19:20;;;;;;;0.13;0.13;;;13.00;99.90;;;;;;5053270;28;20148;-65
2022/11/13 11:21:50;;;;;;;0.13;0.13;;;13.10;99.90;;;;;;5053628;28;20053;-64
2022/11/13 11:24:22;;;;;;;0.30;0.30;;;13.30;99.90;;;;;;5071738;28;20487;-64
2022/11/13 11:27:03;;;;;;;0.28;0.28;;;13.50;99.90;;;;;;5056674;28;20113;-65
2022/11/13 11:29:50;;;;;;;0.45;0.45;;;13.80;99.90;;;;;;5049204;28;20456;-64
2022/11/13 11:32:28;;;;;;;0.82;0.82;;;14.00;99.90;;;;;;5069983;28;20553;-64
2022/11/13 11:35:21;;;;;;;1.27;0.82;;;14.20;99.90;;;;;;5071119;28;20057;-64
2022/11/13 11:38:10;;;;;;;0.13;0.13;;;14.50;99.90;;;;;;5034079;28;20049;-64
2022/11/13 11:40:41;;;;;;;0.10;0.10;;;14.80;99.90;;;;;;5052934;28;20055;-64
2022/11/13 11:43:30;;;;;;;0.40;0.40;;;14.80;99.90;;;;;;5052358;28;20049;-64
2022/11/13 11:45:56;;;;;;;0.65;0.65;;;14.90;99.90;;;;;;5058884;28;20543;-64
2022/11/13 11:48:27;;;;;;;0.20;0.20;;;15.00;99.90;;;;;;5072722;28;20127;-64
2022/11/13 11:51:19;;;;;;;0.10;0.10;;;15.00;99.90;;;;;;5056798;28;20516;-64
2022/11/13 11:54:15;;;;;;;0.10;0.10;;;14.90;99.90;;;;;;5062112;28;20048;-64
2022/11/13 11:56:43;;;;;;;0.43;0.43;;;14.70;99.90;;;;;;5062212;28;20049;-64
2022/11/13 11:59:31;;;;;;;0.10;0.10;;;14.60;99.90;;;;;;5051425;28;20045;-65
2022/11/13 12:01:59;;;;;;;0.47;0.47;;;14.50;99.90;;;;;;5059292;28;20083;-64
2022/11/13 12:04:52;;;;;;;0.10;0.10;;;14.40;99.90;;;;;;5056540;28;20041;-65
2022/11/13 12:07:40;;;;;;;0.38;0.38;;;14.30;99.90;;;;;;5056142;28;20045;-64
2022/11/13 12:10:11;;;;;;;0.20;0.20;;;14.20;99.90;;;;;;5033834;28;20417;-64
2022/11/13 12:13:09;;;;;;;0.10;0.10;;;14.20;99.90;;;;;;5058927;28;20054;-65
2022/11/13 12:15:42;;;;;;;0.10;0.10;;;14.20;99.90;;;;;;5071930;28;20054;-65
2022/11/13 12:18:26;;;;;;;0.63;0.52;;;14.40;99.90;;;;;;5070960;28;20045;-65
2022/11/13 12:21:10;;;;;;;0.30;0.30;;;14.40;99.90;;;;;;5067838;28;20087;-65
2022/11/13 12:23:57;;;;;;;0.55;0.55;;;14.40;99.90;;;;;;5068715;28;20048;-65
2022/11/13 12:27:10;;;;;;;0.13;0.13;;;14.40;99.90;;;;;;5054320;28;20058;-65
2022/11/13 12:30:02;;;;;;;0.55;0.55;;;14.30;99.90;;;;;;5048211;28;20073;-64
2022/11/13 12:32:43;;;;;;;0.10;0.10;;;14.30;99.90;;;;;;5059637;28;20052;-65
2022/11/13 12:35:18;;;;;;;0.20;0.20;;;14.40;99.90;;;;;;5050040;28;20060;-64
2022/11/13 12:38:19;;;;;;;0.10;0.10;;;14.80;99.90;;;;;;5062421;28;20044;-64
2022/11/13 12:40:49;;;;;;;0.32;0.32;;;15.20;99.90;;;;;;5065456;28;20440;-64
2022/11/13 12:43:26;;;;;;;0.43;0.43;;;15.50;99.90;;;;;;5056363;28;20074;-65
2022/11/13 12:45:54;;;;;;;0.43;0.43;;;15.60;99.90;;;;;;5070525;28;20055;-65
2022/11/13 12:48:24;;;;;;;0.55;0.55;;;15.90;99.90;;;;;;5052156;28;20056;-64
2022/11/13 12:51:06;;;;;;;1.13;1.00;;;16.40;99.90;;;;;;5067632;28;20041;-64
2022/11/13 12:53:53;;;;;;;0.82;0.47;;;16.70;99.90;;;;;;5051476;28;20045;-64
2022/11/13 12:56:27;;;;;;;0.32;0.32;;;17.20;99.90;;;;;;5050136;28;20041;-64
2022/11/13 12:59:14;;;;;;;0.90;0.90;;;17.50;99.90;;;;;;5053877;28;20108;-64
2022/11/13 13:01:46;;;;;;;0.10;0.10;;;17.30;99.90;;;;;;5071003;28;20044;-64
2022/11/13 13:04:24;;;;;;;0.10;0.10;;;17.70;99.90;;;;;;5050611;28;20087;-64
2022/11/13 13:06:57;;;;;;;1.13;0.82;;;17.90;99.90;;;;;;5056625;28;20144;-64
2022/11/13 13:09:33;;;;;;;0.98;0.63;;;18.00;99.90;;;;;;5051282;28;20147;-64
2022/11/13 13:12:06;;;;;;;7.18;0.73;;;18.20;99.90;;;;;;5050903;28;20076;-64
2022/11/13 13:14:36;;;;;;;0.30;0.30;;;18.00;99.90;;;;;;5068315;28;20158;-64